Larkfield, United Kingdom
Current Conditions -  °F | °C
As of 12:50 PM on Wednesday 26 Nov 2014 (Local Time) from EGKB Reporting Station
Moderate Fog Moderate Fog  
Wind Chill: 46°   Ceiling: Unl
Heat Index: 46°   Visibility: 0.18mi
Dew Point: 46°   Wind: 2mph
Humidity: 100%   Direction: 40°NE
Pressure: 29.83"   Gusts: NA
Location:  51.29°N, 0.43°E
Report Text: EGKB 261250Z 04002KT 0300 R21/0250 FG VV/// 08/08 Q1010
Loading
Personal Weather Stations






























Interactive Weather Map New forecast layout! Learn more

10-Day Weather Forecast

Advertisements
Track Severe Weather on mobile